Latest Weather Observations for Williamtown

IDN60901

Issued at 8:55 pm EST Tuesday 30 September 2014 (issued every 10 minutes, with the page automatically refreshed every 10 minutes)

About weather observations | Map of Sydney area stations | Latest observations for Sydney area | Other Formats
Station Details ID: 061078 Name: WILLIAMTOWN RAAF Lat: -32.79 Lon: 151.84 Height: 9.0 m
Data from the previous 72 hours. | See also: Recent months at Williamtown
Date/Time
EST
Tmp

°C
App
Tmp
°C
Dew
Point
°C
Rel
Hum
%
Delta-T

°C
Wind Press
QNH
hPa
Press
MSL
hPa
Rain
since
9 am
mm
Dir
 
Spd
km/h
Gust
km/h
Spd
kts
Gust
kts
30/08:30pm 22.6 20.0 7.7 38 7.8 N 11 13 6 7 1009.9 - 0.0
30/08:00pm 22.8 20.6 8.0 38 7.8 N 9 13 5 7 1009.9 - 0.0
30/07:30pm 25.4 22.7 7.2 31 9.6 N 11 17 6 9 1009.9 - 0.0
30/07:00pm 26.0 22.7 6.5 28 10.2 N 13 17 7 9 1009.8 - 0.0
30/06:30pm 26.9 23.6 6.2 26 10.8 N 13 19 7 10 1009.9 - 0.0
30/06:00pm 28.4 24.3 4.6 22 12.2 N 15 20 8 11 1009.8 1009.9 0.0
30/05:30pm 29.4 24.9 4.2 20 12.9 NNW 17 26 9 14 1009.9 - 0.0
30/05:00pm 30.1 25.2 4.3 19 13.3 NNW 19 26 10 14 1009.9 - 0.0
30/04:30pm 29.9 25.1 4.9 20 13.0 NNW 19 33 10 18 1009.9 - 0.0
30/04:00pm 29.5 25.8 6.4 23 12.3 N 15 22 8 12 1010.3 - 0.0
30/03:00pm 29.5 26.7 8.7 27 11.5 N 13 19 7 10 1010.8 1010.9 0.0
30/02:30pm 30.0 26.7 8.1 25 12.0 NNW 15 19 8 10 1011.1 - 0.0
30/02:00pm 28.9 27.7 12.8 37 9.5 N 11 17 6 9 1011.4 - 0.0
30/01:30pm 28.8 28.1 13.3 38 9.2 N 9 13 5 7 1011.8 - 0.0
30/01:00pm 28.6 27.2 12.3 36 9.5 NNW 11 13 6 7 1012.0 - 0.0
30/12:30pm 28.9 27.9 12.3 36 9.7 NW 9 13 5 7 1012.4 - 0.0
30/12:00pm 28.7 27.2 12.0 35 9.7 NNW 11 13 6 7 1012.8 1012.9 0.0
30/11:30am 29.8 28.3 10.5 30 11.0 NW 9 19 5 10 1013.4 - 0.0
30/11:00am 27.3 25.0 10.4 34 9.5 N 13 19 7 10 1013.6 - 0.0
30/10:30am 27.4 24.6 10.0 33 9.7 NW 15 19 8 10 1014.3 - 0.0
30/10:00am 27.1 24.3 8.5 31 10.1 NNW 13 17 7 9 1014.2 - 0.0
30/09:30am 26.2 24.3 10.5 37 8.8 NNW 11 17 6 9 1014.6 - 0.0
30/09:00am 24.3 22.7 10.1 40 7.8 NW 9 13 5 7 1015.2 1015.3 0.0
30/08:30am 20.4 19.6 10.9 54 5.2 WNW 6 13 3 7 1015.2 - 0.0
30/08:00am 18.9 17.3 10.1 56 4.7 NNW 9 13 5 7 1015.1 - 0.0
30/07:30am 17.9 16.0 10.4 61 4.0 WNW 11 13 6 7 1015.3 - 0.0
30/07:00am 17.7 16.2 10.4 62 3.9 WNW 9 15 5 8 1015.2 - 0.0
30/06:30am 17.4 17.6 11.7 69 3.1 WNW 2 9 1 5 1014.7 - 0.0
30/06:00am 15.8 14.4 10.9 72 2.6 NNW 9 13 5 7 1014.7 1014.8 0.0
30/05:30am 14.3 12.7 10.3 77 2.1 N 9 11 5 6 1014.5 - 0.0
30/05:00am 15.6 13.1 9.6 67 3.1 N 13 15 7 8 1014.3 - 0.0
30/04:30am 13.3 11.2 9.8 79 1.8 N 11 13 6 7 1014.4 - 0.0
30/04:00am 14.8 13.1 10.0 73 2.5 N 9 13 5 7 1014.1 - 0.0
30/03:30am 12.6 11.5 10.5 87 1.1 N 7 11 4 6 1014.2 - 0.0
30/03:00am 12.5 11.4 10.6 88 1.0 N 7 9 4 5 1014.2 1014.3 0.0
30/02:30am 13.4 12.3 10.5 82 1.5 NNW 7 9 4 5 1014.4 - 0.0
30/02:00am 14.8 12.9 10.4 75 2.3 NNW 11 15 6 8 1014.4 - 0.0
30/01:30am 13.2 13.0 10.3 82 1.5 NE 2 13 1 7 1014.8 - 0.0
30/01:00am 13.7 13.9 10.6 81 1.6 CALM 0 0 0 0 1015.0 - 0.0
30/12:30am 14.9 15.1 10.5 75 2.3 CALM 0 9 0 5 1015.2 - 0.0
30/12:00am 14.1 14.5 11.1 82 1.6 NNW 0 0 0 0 1015.1 1015.2 0.0
 
Date/Time
EST
Tmp

°C
App
Tmp
°C
Dew
Point
°C
Rel
Hum
%
Delta-T

°C
Wind Press
QNH
hPa
Press
MSL
hPa
Rain
since
9 am
mm
Dir
 
Spd
km/h
Gust
km/h
Spd
kts
Gust
kts
29/11:30pm 14.5 14.7 10.7 78 2.0 CALM 0 0 0 0 1015.4 - 0.0
29/11:00pm 15.3 15.6 10.8 74 2.4 CALM 0 0 0 0 1015.6 - 0.0
29/10:30pm 15.8 16.0 10.7 71 2.7 CALM 0 0 0 0 1015.8 - 0.0
29/10:00pm 19.6 17.0 9.2 51 5.5 N 13 17 7 9 1015.6 - 0.0
29/09:30pm 17.1 15.6 10.7 66 3.4 N 9 13 5 7 1015.6 - 0.0
29/09:00pm 17.3 17.7 11.2 67 3.3 CALM 0 0 0 0 1015.5 1015.6 0.0
29/08:30pm 18.7 19.1 11.4 62 4.0 CALM 0 0 0 0 1015.4 - 0.0
29/08:00pm 18.6 19.2 11.9 65 3.7 CALM 0 0 0 0 1015.3 - 0.0
29/07:30pm 19.4 17.7 11.2 59 4.5 NNE 11 13 6 7 1014.9 - 0.0
29/07:00pm 20.8 19.1 10.0 50 5.8 ENE 9 11 5 6 1014.5 - 0.0
29/06:30pm 21.5 19.8 10.0 48 6.2 N 9 11 5 6 1014.1 - 0.0
29/06:00pm 24.0 21.5 8.2 36 8.4 NNW 11 11 6 6 1013.8 1013.9 0.0
29/05:30pm 27.1 24.7 7.1 28 10.6 N 9 11 5 6 1013.5 - 0.0
29/05:00pm 28.3 24.8 5.6 23 11.8 N 13 17 7 9 1013.0 - 0.0
29/04:30pm 29.3 24.9 5.0 21 12.6 NNW 17 22 9 12 1012.7 - 0.0
29/04:00pm 29.7 24.9 4.4 20 13.0 NW 19 24 10 13 1012.7 - 0.0
29/03:30pm 30.2 24.9 5.1 20 13.1 NNW 22 33 12 18 1012.8 - 0.0
29/03:00pm 30.2 25.1 4.1 19 13.4 NNW 20 30 11 16 1012.9 1013.0 0.0
29/02:30pm 30.7 25.7 4.4 19 13.6 NNW 20 32 11 17 1013.0 - 0.0
29/02:00pm 30.3 24.2 2.8 17 13.8 WNW 24 28 13 15 1013.2 - 0.0
29/01:30pm 30.0 23.5 2.9 17 13.6 NNW 26 37 14 20 1013.7 - 0.0
29/01:00pm 29.6 23.1 2.4 17 13.5 WNW 26 33 14 18 1014.1 - 0.0
29/12:30pm 29.5 23.0 2.9 18 13.3 WNW 26 33 14 18 1014.4 - 0.0
29/12:00pm 29.3 23.0 3.9 20 12.9 W 26 37 14 20 1014.6 1014.7 0.0
29/11:30am 29.0 22.1 6.3 23 12.0 WNW 32 39 17 21 1015.1 - 0.0
29/11:00am 27.3 21.3 7.1 27 10.7 WNW 28 37 15 20 1015.4 - 0.0
29/10:30am 25.7 20.3 8.1 32 9.4 WNW 26 33 14 18 1015.8 - 0.0
29/10:00am 24.0 20.1 9.4 39 7.9 WNW 20 28 11 15 1016.0 - 0.0
29/09:30am 22.5 19.8 9.0 42 7.2 NNW 13 19 7 10 1016.2 - 0.0
29/09:00am 21.1 18.4 8.8 45 6.5 NNW 13 17 7 9 1016.4 1016.5 0.0
29/08:30am 19.6 16.5 8.7 49 5.7 NNW 15 19 8 10 1016.5 - 0.0
29/08:00am 18.3 14.8 8.6 53 5.0 NNW 17 22 9 12 1016.5 - 0.0
29/07:30am 17.0 13.5 8.8 58 4.2 NW 17 22 9 12 1016.4 - 0.0
29/07:00am 15.4 12.5 9.6 68 3.0 NW 15 22 8 12 1016.6 - 0.0
29/06:30am 13.3 12.0 9.8 79 1.8 N 7 11 4 6 1016.4 - 0.0
29/06:00am 10.9 9.3 10.1 95 0.4 NNW 9 11 5 6 1016.3 1016.4 0.0
29/05:30am 9.9 8.1 9.3 96 0.3 WNW 9 11 5 6 1016.1 - 0.0
29/05:00am 9.7 8.0 8.3 91 0.7 NNW 7 9 4 5 1015.8 - 0.0
29/04:30am 11.0 9.6 9.4 90 0.8 NW 7 7 4 4 1015.9 - 0.0
29/04:00am 12.0 9.6 10.0 87 1.0 N 13 15 7 8 1015.7 - 0.0
29/03:30am 10.7 10.6 9.3 91 0.7 CALM 0 0 0 0 1015.9 - 0.0
29/03:00am 12.6 11.0 10.3 86 1.2 NNW 9 15 5 8 1015.8 1015.9 0.0
29/02:30am 12.9 10.6 10.4 85 1.3 N 13 15 7 8 1015.9 - 0.0
29/02:00am 12.5 10.2 10.4 87 1.1 NNE 13 15 7 8 1016.6 - 0.0
29/01:30am 12.6 11.1 10.5 87 1.1 NNW 9 11 5 6 1017.1 - 0.0
29/01:00am 13.2 12.1 10.5 84 1.4 NNE 7 11 4 6 1017.1 - 0.0
29/12:30am 14.0 12.1 10.6 80 1.8 NNE 11 17 6 9 1017.2 - 0.0
29/12:00am 14.3 12.5 10.7 79 1.9 NNE 11 17 6 9 1017.5 1017.6 0.0
 
Date/Time
EST
Tmp

°C
App
Tmp
°C
Dew
Point
°C
Rel
Hum
%
Delta-T

°C
Wind Press
QNH
hPa
Press
MSL
hPa
Rain
since
9 am
mm
Dir
 
Spd
km/h
Gust
km/h
Spd
kts
Gust
kts
28/11:30pm 14.3 12.5 10.7 79 1.9 NNE 11 13 6 7 1017.8 - 0.0
28/11:00pm 15.2 12.9 10.6 74 2.4 NNE 13 17 7 9 1018.0 - 0.0
28/10:30pm 15.6 13.3 10.5 71 2.7 NNE 13 20 7 11 1018.0 - 0.0
28/10:00pm 16.0 13.7 10.5 70 2.9 NE 13 20 7 11 1018.0 - 0.0
28/09:30pm 16.3 13.6 10.4 68 3.1 NNE 15 22 8 12 1017.9 - 0.0
28/09:00pm 16.6 13.2 10.4 67 3.3 NE 19 30 10 16 1018.1 1018.2 0.0
28/08:30pm 16.8 13.2 10.4 66 3.4 NE 20 33 11 18 1018.1 - 0.0
28/08:00pm 16.9 13.4 10.3 65 3.5 NE 19 28 10 15 1018.0 - 0.0
28/07:30pm 17.2 13.8 10.4 64 3.6 NE 19 32 10 17 1017.9 - 0.0
28/07:00pm 17.4 14.2 11.3 67 3.3 NE 19 28 10 15 1017.6 - 0.0
28/06:30pm 18.0 14.7 11.0 63 3.8 NE 19 30 10 16 1017.5 - 0.0
28/06:00pm 18.2 15.2 11.8 66 3.5 ENE 19 28 10 15 1017.4 1017.5 0.0
28/05:30pm 19.2 16.0 11.3 60 4.3 ENE 19 28 10 15 1017.2 - 0.0
28/05:00pm 20.1 16.7 10.7 54 5.1 ENE 19 28 10 15 1017.2 - 0.0
28/04:30pm 21.1 17.0 10.0 49 6.0 ENE 22 30 12 16 1017.3 - 0.0
28/04:00pm 22.2 18.3 9.6 44 6.8 ENE 20 32 11 17 1017.4 - 0.0
28/03:30pm 22.3 18.2 8.7 41 7.2 ENE 20 28 11 15 1017.4 - 0.0
28/03:00pm 23.0 19.1 8.7 40 7.6 ENE 19 28 10 15 1017.5 1017.6 0.0
28/02:30pm 23.8 20.7 8.9 38 8.0 ENE 15 20 8 11 1017.8 - 0.0
28/02:00pm 23.3 20.1 8.6 39 7.8 NE 15 24 8 13 1018.3 - 0.0
28/01:30pm 22.6 19.0 8.4 40 7.5 N 17 19 9 10 1018.8 - 0.0
28/01:00pm 23.1 21.0 8.3 38 7.8 ENE 9 15 5 8 1019.2 - 0.0
28/12:30pm 23.0 20.4 7.7 37 8.0 WNW 11 17 6 9 1019.9 - 0.0
28/12:00pm 22.6 19.6 7.8 38 7.7 N 13 19 7 10 1020.5 1020.6 0.0
28/11:30am 21.8 19.4 8.5 42 7.0 WNW 11 17 6 9 1021.0 - 0.0
28/11:00am 21.3 19.5 9.3 46 6.4 NNE 9 13 5 7 1021.6 - 0.0
28/10:30am 20.5 18.8 9.8 50 5.7 NNE 9 19 5 10 1022.0 - 0.0
28/10:00am 19.1 17.4 9.9 55 4.9 N 9 19 5 10 1022.4 - 0.0
28/09:30am 17.7 15.9 10.8 64 3.7 NNW 11 15 6 8 1022.7 - 0.0
28/09:00am 16.6 14.8 11.0 69 3.0 NNW 11 15 6 8 1022.9 1023.0 0.0
28/08:30am 15.6 13.8 10.7 72 2.6 NNW 11 15 6 8 1022.9 - 0.0
28/08:00am 14.6 12.8 11.0 79 1.9 NW 11 15 6 8 1022.7 - 0.0
28/07:30am 13.3 11.3 11.6 89 0.9 NW 13 15 7 8 1022.7 - 0.0
28/07:00am 11.4 11.7 10.8 96 0.3 CALM 0 0 0 0 1022.6 - 0.0
28/06:30am 8.7 7.9 8.1 96 0.3 NW 2 7 1 4 1022.5 - 0.0
28/06:00am 6.4 5.5 6.2 99 0.1 CALM 0 0 0 0 1022.1 1022.2 0.0
28/05:44am 6.4 5.5 6.0 97 0.2 CALM 0 0 0 0 1022.0 - 0.0
28/05:30am 6.2 5.2 5.7 97 0.2 CALM 0 0 0 0 1021.8 - 0.0
28/05:28am 6.1 5.2 5.9 99 0.1 CALM 0 0 0 0 1021.7 - 0.0
28/05:00am 6.3 5.4 6.1 99 0.1 CALM 0 0 0 0 1021.7 - 0.0
28/04:44am 6.6 5.8 6.4 99 0.1 CALM 0 0 0 0 1021.6 - 0.0
28/04:43am 6.7 5.9 6.3 97 0.2 CALM 0 0 0 0 1021.6 - 0.0
28/04:36am 6.3 5.4 6.1 99 0.1 CALM 0 0 0 0 1021.5 - 0.0
28/04:30am 6.9 6.1 6.5 97 0.2 CALM 0 0 0 0 1021.5 - 0.0
28/04:00am 7.0 6.2 6.3 95 0.3 CALM 0 0 0 0 1021.4 - 0.0
28/03:59am 7.0 6.1 6.1 94 0.4 CALM 0 0 0 0 1021.3 - 0.0
28/03:49am 7.3 6.6 6.9 97 0.2 CALM 0 0 0 0 1021.3 - 0.0
28/03:30am 7.0 6.2 6.3 95 0.3 CALM 0 0 0 0 1021.4 - 0.0
28/03:00am 7.0 6.1 5.9 93 0.5 CALM 0 0 0 0 1021.7 1021.8 0.0
28/02:30am 7.6 6.9 6.9 95 0.3 CALM 0 0 0 0 1021.6 - 0.0
28/02:00am 8.0 7.3 6.9 93 0.5 CALM 0 0 0 0 1022.0 - 0.0
28/01:30am 8.1 7.5 7.2 94 0.4 CALM 0 0 0 0 1022.1 - 0.0
28/01:00am 8.4 7.8 7.5 94 0.4 CALM 0 0 0 0 1022.0 - 0.0
28/12:34am 9.0 8.6 8.2 95 0.4 CALM 0 0 0 0 1022.3 - 0.0
28/12:30am 8.8 8.4 8.2 96 0.3 CALM 0 0 0 0 1022.4 - 0.0
28/12:16am 9.0 8.5 7.7 91 0.6 CALM 0 0 0 0 1022.6 - 0.0
28/12:00am 9.2 8.8 8.4 95 0.4 CALM 0 0 0 0 1022.6 1022.7 0.0
 
Date/Time
EST
Tmp

°C
App
Tmp
°C
Dew
Point
°C
Rel
Hum
%
Delta-T

°C
Wind Press
QNH
hPa
Press
MSL
hPa
Rain
since
9 am
mm
Dir
 
Spd
km/h
Gust
km/h
Spd
kts
Gust
kts
27/11:30pm 9.5 9.2 8.5 93 0.5 CALM 0 0 0 0 1022.7 - 0.0
27/11:00pm 9.8 9.5 8.8 93 0.5 CALM 0 0 0 0 1022.6 - 0.0
27/10:30pm 10.2 10.1 9.4 95 0.4 CALM 0 0 0 0 1022.6 - 0.0
27/10:00pm 10.2 10.1 9.4 95 0.4 CALM 0 0 0 0 1022.7 - 0.0
27/09:30pm 10.4 10.2 9.2 92 0.6 CALM 0 6 0 3 1022.4 - 0.0
27/09:00pm 10.4 10.2 9.2 92 0.6 CALM 0 0 0 0 1022.3 1022.4 0.0

Latest Capital City Observations: Canberra | Sydney | Melbourne | Brisbane | Adelaide | Perth | Hobart | Darwin

Other Formats:

Comma delimited format used in spreadsheet applications
http://www.bom.gov.au/fwo/IDN60901/IDN60901.94776.axf

JavaScript Object Notation format (JSON) in row-major order
http://www.bom.gov.au/fwo/IDN60901/IDN60901.94776.json